createdAt,value
2022-11-13T00:02:13.834Z,31.60
2022-11-13T00:05:00.309Z,31.30
2022-11-13T00:07:46.818Z,31.37
2022-11-13T00:10:33.099Z,27.33
2022-11-13T00:13:20.870Z,34.50
2022-11-13T00:16:10.890Z,30.50
2022-11-13T00:18:57.091Z,34.80
2022-11-13T00:21:43.705Z,42.57
2022-11-13T00:24:30.143Z,30.10
2022-11-13T00:27:16.696Z,33.40
2022-11-13T00:30:05.207Z,33.53
2022-11-13T00:32:51.520Z,33.57
2022-11-13T00:35:37.937Z,35.30
2022-11-13T00:38:24.372Z,35.13
2022-11-13T00:41:10.851Z,34.60
2022-11-13T00:43:57.371Z,33.50
2022-11-13T00:46:45.198Z,32.70
2022-11-13T00:49:31.655Z,30.30
2022-11-13T00:52:18.256Z,36.73
2022-11-13T00:55:05.333Z,36.27
2022-11-13T00:57:51.894Z,35.67
2022-11-13T01:00:38.415Z,34.20
2022-11-13T01:03:26.163Z,33.53
2022-11-13T01:06:15.320Z,31.10
2022-11-13T01:09:01.805Z,32.63
2022-11-13T01:11:48.066Z,34.20
2022-11-13T01:14:34.590Z,32.60
2022-11-13T01:17:21.150Z,31.20
2022-11-13T01:20:10.069Z,35.87
2022-11-13T01:22:56.585Z,34.70
2022-11-13T01:25:43.150Z,32.23
2022-11-13T01:28:29.787Z,33.50
2022-11-13T01:31:17.791Z,41.40
2022-11-13T01:34:04.396Z,32.83
2022-11-13T01:36:52.559Z,31.70
2022-11-13T01:39:38.803Z,31.77
2022-11-13T01:42:25.390Z,31.20
2022-11-13T01:45:49.051Z,31.30
2022-11-13T01:48:39.822Z,28.53
2022-11-13T01:51:30.625Z,30.87
2022-11-13T01:54:22.832Z,33.30
2022-11-13T01:57:10.596Z,29.33
2022-11-13T02:00:01.423Z,29.50
2022-11-13T02:02:47.879Z,31.40
2022-11-13T02:05:34.672Z,29.50
2022-11-13T02:08:21.382Z,28.77
2022-11-13T02:11:09.098Z,28.07
2022-11-13T02:13:55.954Z,29.67
2022-11-13T02:16:44.023Z,29.83
2022-11-13T02:19:33.990Z,31.43
2022-11-13T02:22:27.233Z,26.80
2022-11-13T02:25:15.275Z,29.17
2022-11-13T02:28:01.826Z,25.90
2022-11-13T02:30:48.390Z,27.07
2022-11-13T02:33:35.046Z,27.07
2022-11-13T02:36:23.926Z,29.00
2022-11-13T02:39:12.998Z,28.53
2022-11-13T02:42:00.973Z,28.43
2022-11-13T02:44:47.716Z,29.47
2022-11-13T02:47:34.963Z,27.83
2022-11-13T02:50:21.554Z,26.13
2022-11-13T02:53:08.450Z,22.47
2022-11-13T02:55:54.949Z,23.30
2022-11-13T02:58:42.854Z,28.80
2022-11-13T03:01:29.117Z,28.00
2022-11-13T03:04:15.446Z,25.37
2022-11-13T03:07:02.031Z,21.70
2022-11-13T03:09:48.548Z,25.90
2022-11-13T03:12:35.349Z,22.43
2022-11-13T03:15:23.559Z,24.00
2022-11-13T03:18:11.192Z,25.87
2022-11-13T03:20:57.718Z,24.80
2022-11-13T03:23:45.544Z,22.47
2022-11-13T03:26:31.819Z,24.50
2022-11-13T03:29:18.208Z,22.20
2022-11-13T03:32:06.696Z,23.20
2022-11-13T03:34:53.225Z,22.33
2022-11-13T03:37:39.817Z,24.80
2022-11-13T03:40:26.367Z,29.03
2022-11-13T03:43:12.875Z,25.40
2022-11-13T03:45:59.144Z,22.17
2022-11-13T03:48:46.617Z,24.63
2022-11-13T03:51:33.334Z,25.50
2022-11-13T03:54:20.083Z,24.50
2022-11-13T03:57:06.664Z,21.80
2022-11-13T03:59:53.007Z,28.80
2022-11-13T04:02:39.568Z,25.73
2022-11-13T04:05:27.608Z,24.67
2022-11-13T04:08:13.831Z,24.23
2022-11-13T04:11:07.542Z,26.83
2022-11-13T04:13:54.080Z,24.23
2022-11-13T04:16:40.868Z,27.60
2022-11-13T04:19:27.091Z,24.87
2022-11-13T04:22:15.140Z,25.33
2022-11-13T04:25:01.426Z,27.60
2022-11-13T04:27:49.638Z,25.33
2022-11-13T04:30:35.852Z,32.17
2022-11-13T04:33:22.584Z,25.40
2022-11-13T04:36:09.249Z,26.70
2022-11-13T04:38:57.095Z,25.60
2022-11-13T04:42:01.007Z,25.80
2022-11-13T04:44:47.419Z,26.20
2022-11-13T04:47:33.593Z,24.40
2022-11-13T04:50:20.638Z,24.90
2022-11-13T04:53:06.979Z,19.93
2022-11-13T04:55:54.869Z,19.30
2022-11-13T04:58:41.198Z,18.47
2022-11-13T05:01:27.731Z,23.40
2022-11-13T05:04:15.131Z,21.57
2022-11-13T05:07:01.467Z,20.10
2022-11-13T05:09:47.974Z,18.20
2022-11-13T05:12:35.795Z,21.00
2022-11-13T05:15:22.307Z,18.33
2022-11-13T05:18:08.906Z,19.50
2022-11-13T05:20:55.519Z,17.37
2022-11-13T05:23:42.032Z,15.23
2022-11-13T05:26:28.630Z,20.07
2022-11-13T05:29:16.313Z,18.37
2022-11-13T05:32:02.927Z,18.63
2022-11-13T05:34:49.560Z,20.73
2022-11-13T05:37:35.902Z,24.90
2022-11-13T05:40:22.575Z,19.50
2022-11-13T05:43:08.946Z,18.60
2022-11-13T05:46:02.378Z,21.10
2022-11-13T05:48:52.968Z,18.13
2022-11-13T05:51:39.326Z,26.33
2022-11-13T05:54:25.872Z,18.50
2022-11-13T05:57:12.290Z,19.63
2022-11-13T05:59:58.660Z,20.87
2022-11-13T06:02:46.325Z,19.00
2022-11-13T06:05:35.843Z,18.90
2022-11-13T06:08:21.980Z,20.20
2022-11-13T06:11:10.214Z,17.33
2022-11-13T06:13:58.316Z,17.30
2022-11-13T06:16:44.823Z,16.07
2022-11-13T06:19:32.695Z,16.90
2022-11-13T06:22:19.101Z,20.20
2022-11-13T06:25:06.463Z,17.67
2022-11-13T06:27:54.072Z,17.67
2022-11-13T06:30:40.413Z,18.03
2022-11-13T06:33:29.396Z,16.67
2022-11-13T06:36:21.361Z,18.63
2022-11-13T06:39:09.112Z,16.77
2022-11-13T06:41:55.611Z,17.57
2022-11-13T06:44:42.276Z,18.40
2022-11-13T06:47:29.508Z,17.20
2022-11-13T06:50:15.907Z,17.97
2022-11-13T06:53:03.773Z,16.93
2022-11-13T06:55:51.489Z,19.90
2022-11-13T06:58:37.911Z,16.07
2022-11-13T07:01:26.484Z,16.93
2022-11-13T07:04:16.553Z,18.20
2022-11-13T07:07:03.065Z,22.13
2022-11-13T07:09:50.885Z,16.10
2022-11-13T07:12:37.459Z,21.07
2022-11-13T07:15:23.939Z,18.23
2022-11-13T07:18:10.393Z,18.10
2022-11-13T07:20:56.931Z,19.23
2022-11-13T07:23:44.499Z,19.13
2022-11-13T07:26:34.100Z,18.50
2022-11-13T07:29:21.111Z,17.80
2022-11-13T07:32:07.545Z,17.37
2022-11-13T07:34:54.261Z,20.03
2022-11-13T07:37:41.092Z,42.77
2022-11-13T07:40:27.391Z,23.43
2022-11-13T07:43:15.435Z,19.07
2022-11-13T07:46:02.536Z,21.93
2022-11-13T07:48:49.172Z,17.20
2022-11-13T07:51:35.624Z,17.10
2022-11-13T07:54:22.205Z,16.50
2022-11-13T07:57:09.060Z,16.50
2022-11-13T07:59:56.818Z,15.70
2022-11-13T08:02:43.294Z,18.07
2022-11-13T08:05:31.528Z,15.47
2022-11-13T08:08:18.122Z,16.97
2022-11-13T08:11:06.249Z,16.30
2022-11-13T08:13:53.541Z,17.57
2022-11-13T08:16:41.246Z,14.20
2022-11-13T08:19:27.451Z,15.73
2022-11-13T08:22:13.991Z,15.87
2022-11-13T08:25:00.633Z,16.67
2022-11-13T08:27:46.863Z,22.43
2022-11-13T08:30:33.234Z,16.33
2022-11-13T08:33:21.180Z,15.90
2022-11-13T08:36:08.363Z,16.67
2022-11-13T08:38:54.838Z,16.70
2022-11-13T08:41:41.047Z,14.07
2022-11-13T08:44:27.600Z,17.27
2022-11-13T08:47:13.904Z,18.67
2022-11-13T08:50:01.760Z,15.93
2022-11-13T08:52:48.309Z,16.73
2022-11-13T08:55:35.508Z,17.47
2022-11-13T08:58:21.767Z,17.63
2022-11-13T09:01:08.386Z,18.60
2022-11-13T09:03:54.912Z,16.33
2022-11-13T09:06:42.607Z,16.57
2022-11-13T09:09:29.096Z,16.67
2022-11-13T09:12:15.694Z,18.47
2022-11-13T09:15:02.236Z,18.43
2022-11-13T09:17:48.664Z,16.37
2022-11-13T09:20:35.250Z,17.97
2022-11-13T09:23:23.112Z,18.03
2022-11-13T09:26:09.645Z,19.70
2022-11-13T09:28:56.252Z,18.23
2022-11-13T09:31:42.641Z,19.77
2022-11-13T09:34:29.816Z,17.53
2022-11-13T09:37:16.423Z,19.43
2022-11-13T09:40:04.622Z,18.20
2022-11-13T09:42:51.332Z,14.03
2022-11-13T09:45:41.562Z,15.37
2022-11-13T09:48:33.152Z,19.10
2022-11-13T09:51:22.168Z,22.20
2022-11-13T09:54:13.431Z,19.53
2022-11-13T09:57:11.452Z,23.97
2022-11-13T10:00:01.841Z,21.10
2022-11-13T10:02:59.480Z,23.70
2022-11-13T10:05:53.512Z,24.23
2022-11-13T10:08:51.929Z,24.80
2022-11-13T10:11:42.288Z,21.87
2022-11-13T10:14:35.791Z,26.13
2022-11-13T10:17:26.343Z,24.40
2022-11-13T10:20:16.969Z,26.23
2022-11-13T10:23:09.889Z,25.93
2022-11-13T10:26:00.969Z,26.93
2022-11-13T10:28:51.508Z,31.20
2022-11-13T10:31:48.676Z,26.43
2022-11-13T10:34:35.022Z,26.60
2022-11-13T10:37:31.252Z,21.97
2022-11-13T10:40:26.090Z,29.07
2022-11-13T10:43:17.747Z,25.80
2022-11-13T10:46:06.787Z,21.87
2022-11-13T10:48:54.378Z,24.47
2022-11-13T10:51:41.014Z,30.27
2022-11-13T10:54:28.900Z,26.50
2022-11-13T10:57:25.745Z,31.93
2022-11-13T11:00:24.195Z,27.10
2022-11-13T11:03:15.915Z,28.33
2022-11-13T11:06:06.273Z,26.63
2022-11-13T11:08:52.385Z,30.73
2022-11-13T11:11:56.580Z,28.70
2022-11-13T11:14:51.356Z,23.90
2022-11-13T11:17:43.699Z,30.10
2022-11-13T11:20:42.120Z,23.57
2022-11-13T11:23:38.338Z,24.63
2022-11-13T11:26:31.763Z,25.97
2022-11-13T11:29:22.806Z,26.40
2022-11-13T11:32:17.816Z,25.77
2022-11-13T11:35:13.958Z,26.77
2022-11-13T11:38:06.435Z,26.87
2022-11-13T11:41:00.386Z,24.23
2022-11-13T11:43:49.986Z,32.87
2022-11-13T11:46:37.354Z,37.10
2022-11-13T11:49:27.630Z,29.97
2022-11-13T11:52:30.700Z,23.37
2022-11-13T11:55:32.284Z,27.37
2022-11-13T11:58:55.885Z,27.63
2022-11-13T12:01:59.261Z,27.43
2022-11-13T12:04:59.720Z,21.17
2022-11-13T12:07:54.239Z,25.53
2022-11-13T12:10:49.371Z,24.90
2022-11-13T12:13:45.319Z,25.53
2022-11-13T12:16:42.538Z,21.20
2022-11-13T12:19:38.738Z,26.07
2022-11-13T12:22:32.021Z,22.33
2022-11-13T12:25:28.764Z,25.10
2022-11-13T12:28:21.357Z,21.50
2022-11-13T12:31:18.744Z,22.47
2022-11-13T12:34:14.210Z,18.00
2022-11-13T12:37:02.850Z,24.27
2022-11-13T12:39:57.138Z,25.10
2022-11-13T12:42:49.270Z,20.97
2022-11-13T12:45:50.708Z,19.37
2022-11-13T12:48:40.682Z,23.53
2022-11-13T12:51:38.307Z,19.60
2022-11-13T12:54:29.711Z,18.43
2022-11-13T12:57:25.850Z,21.13
2022-11-13T13:00:26.775Z,21.43
2022-11-13T13:03:37.123Z,27.37
2022-11-13T13:06:46.080Z,25.40
2022-11-13T13:09:50.678Z,22.60
2022-11-13T13:12:49.412Z,20.90
2022-11-13T13:15:38.414Z,20.30
2022-11-13T13:18:30.922Z,21.87
2022-11-13T13:21:19.398Z,20.17
2022-11-13T13:24:27.796Z,24.13
2022-11-13T13:27:23.355Z,21.40
2022-11-13T13:30:20.136Z,22.03
2022-11-13T13:33:20.510Z,19.80
2022-11-13T13:36:18.466Z,22.07
2022-11-13T13:39:17.255Z,23.83
2022-11-13T13:42:17.771Z,29.90
2022-11-13T13:45:24.948Z,23.07
2022-11-13T13:48:14.200Z,19.57
2022-11-13T13:51:01.581Z,20.60
2022-11-13T13:53:50.138Z,21.00
2022-11-13T13:56:43.304Z,15.57
2022-11-13T13:59:33.788Z,18.67
2022-11-13T14:02:23.138Z,23.30
2022-11-13T14:05:24.691Z,22.13
2022-11-13T14:08:18.015Z,22.20
2022-11-13T14:11:16.769Z,20.07
2022-11-13T14:14:11.356Z,19.27
2022-11-13T14:17:00.452Z,19.50
2022-11-13T14:19:50.681Z,26.00
2022-11-13T14:22:37.538Z,26.20
2022-11-13T14:25:27.948Z,25.20
2022-11-13T14:28:16.942Z,21.17
2022-11-13T14:31:07.939Z,21.60
2022-11-13T14:33:54.837Z,20.40
2022-11-13T14:36:41.313Z,20.40
2022-11-13T14:39:31.384Z,18.63
2022-11-13T14:42:20.313Z,22.40
2022-11-13T14:45:15.007Z,21.67
2022-11-13T14:48:05.306Z,23.63
2022-11-13T14:50:53.327Z,25.00
2022-11-13T14:53:42.663Z,22.30
2022-11-13T14:56:36.992Z,22.33
2022-11-13T14:59:27.857Z,24.40
2022-11-13T15:02:14.627Z,20.30
2022-11-13T15:05:02.310Z,27.43
2022-11-13T15:07:48.961Z,23.10
2022-11-13T15:10:35.417Z,27.33
2022-11-13T15:13:21.840Z,27.77
2022-11-13T15:16:12.067Z,29.47
2022-11-13T15:19:02.781Z,30.23
2022-11-13T15:22:20.270Z,29.10
2022-11-13T15:24:56.700Z,29.87
2022-11-13T15:27:43.612Z,28.00
2022-11-13T15:30:29.929Z,32.07
2022-11-13T15:33:17.722Z,33.23
2022-11-13T15:36:03.833Z,26.00
2022-11-13T15:38:51.489Z,29.10
2022-11-13T15:41:38.108Z,28.90
2022-11-13T15:44:24.634Z,25.20
2022-11-13T15:47:26.452Z,25.33
2022-11-13T15:50:15.347Z,24.77
2022-11-13T15:53:05.516Z,29.43
2022-11-13T15:55:53.548Z,29.80
2022-11-13T15:58:40.107Z,29.53
2022-11-13T16:01:26.905Z,34.73
2022-11-13T16:04:14.851Z,29.43
2022-11-13T16:07:01.297Z,31.60
2022-11-13T16:09:48.849Z,36.43
2022-11-13T16:12:36.505Z,39.97
2022-11-13T16:15:22.945Z,44.80
2022-11-13T16:18:19.729Z,35.50
2022-11-13T16:21:06.838Z,33.20
2022-11-13T16:23:53.350Z,30.53
2022-11-13T16:26:41.972Z,30.10
2022-11-13T16:29:30.897Z,31.13
2022-11-13T16:32:18.350Z,28.30
2022-11-13T16:35:04.905Z,27.50
2022-11-13T16:37:51.284Z,29.47
2022-11-13T16:40:37.711Z,28.00
2022-11-13T16:43:24.245Z,30.40
2022-11-13T16:46:21.404Z,26.50
2022-11-13T16:49:12.763Z,31.83
2022-11-13T16:51:59.175Z,31.40
2022-11-13T16:54:46.194Z,30.43
2022-11-13T16:57:32.619Z,37.87
2022-11-13T17:00:20.666Z,38.33
2022-11-13T17:03:08.253Z,33.93
2022-11-13T17:05:54.792Z,41.73
2022-11-13T17:08:41.332Z,30.17
2022-11-13T17:11:29.872Z,31.17
2022-11-13T17:14:16.453Z,41.10
2022-11-13T17:17:02.888Z,34.90
2022-11-13T17:19:50.703Z,34.90
2022-11-13T17:22:37.348Z,34.00
2022-11-13T17:25:26.522Z,32.17
2022-11-13T17:28:12.870Z,131.17
2022-11-13T17:31:02.870Z,50.40
2022-11-13T17:33:49.595Z,37.53
2022-11-13T17:36:37.359Z,38.10
2022-11-13T17:39:24.004Z,35.77
2022-11-13T17:42:10.606Z,44.17
2022-11-13T17:44:57.096Z,46.00
2022-11-13T17:47:43.809Z,38.27
2022-11-13T17:50:30.439Z,41.27
2022-11-13T17:53:18.115Z,36.90
2022-11-13T17:56:08.129Z,40.43
2022-11-13T17:58:54.579Z,35.13
2022-11-13T18:01:41.151Z,41.33
2022-11-13T18:04:27.515Z,42.70
2022-11-13T18:07:14.048Z,47.40
2022-11-13T18:10:01.976Z,41.07
2022-11-13T18:12:48.417Z,46.90
2022-11-13T18:15:36.415Z,42.13
2022-11-13T18:18:23.025Z,35.70
2022-11-13T18:21:22.368Z,39.60
2022-11-13T18:24:14.059Z,52.07
2022-11-13T18:27:02.058Z,33.63
2022-11-13T18:29:48.669Z,42.10
2022-11-13T18:32:35.050Z,43.10
2022-11-13T18:35:21.715Z,37.70
2022-11-13T18:38:08.286Z,36.67
2022-11-13T18:41:01.299Z,30.27
2022-11-13T18:43:50.791Z,34.63
2022-11-13T18:46:37.146Z,29.77
2022-11-13T18:49:23.760Z,30.33
2022-11-13T18:52:10.507Z,41.13
2022-11-13T18:54:56.623Z,38.53
2022-11-13T18:57:44.684Z,52.40
2022-11-13T19:00:32.597Z,51.67
2022-11-13T19:03:19.027Z,37.53
2022-11-13T19:06:07.043Z,36.83
2022-11-13T19:08:56.711Z,38.63
2022-11-13T19:11:44.198Z,38.77
2022-11-13T19:14:30.679Z,38.30
2022-11-13T19:17:18.695Z,39.80
2022-11-13T19:20:06.031Z,41.33
2022-11-13T19:22:52.277Z,35.17
2022-11-13T19:25:38.721Z,40.17
2022-11-13T19:28:25.528Z,40.07
2022-11-13T19:31:14.294Z,36.37
2022-11-13T19:34:04.720Z,41.80
2022-11-13T19:36:51.440Z,39.77
2022-11-13T19:39:38.140Z,45.30
2022-11-13T19:42:24.724Z,37.73
2022-11-13T19:45:12.021Z,39.70
2022-11-13T19:47:58.519Z,41.00
2022-11-13T19:50:47.355Z,41.23
2022-11-13T19:53:33.881Z,36.93
2022-11-13T19:56:21.993Z,44.57
2022-11-13T19:59:11.955Z,44.00
2022-11-13T20:01:58.154Z,43.90
2022-11-13T20:04:44.448Z,39.23
2022-11-13T20:07:32.471Z,35.40
2022-11-13T20:10:19.127Z,35.10
2022-11-13T20:13:05.603Z,42.67
2022-11-13T20:15:54.384Z,42.60
2022-11-13T20:18:42.756Z,37.83
2022-11-13T20:21:31.357Z,41.57
2022-11-13T20:24:19.243Z,44.57
2022-11-13T20:27:05.715Z,50.50
2022-11-13T20:29:52.325Z,41.73
2022-11-13T20:32:39.156Z,41.90
2022-11-13T20:35:25.276Z,33.33
2022-11-13T20:38:11.955Z,32.47
2022-11-13T20:40:59.781Z,39.57
2022-11-13T20:43:46.155Z,36.80
2022-11-13T20:46:32.650Z,40.83
2022-11-13T20:49:19.164Z,41.63
2022-11-13T20:52:07.038Z,36.93
2022-11-13T20:54:53.631Z,42.13
2022-11-13T20:57:41.369Z,40.10
2022-11-13T21:00:27.761Z,38.50
2022-11-13T21:03:14.590Z,35.27
2022-11-13T21:06:01.192Z,34.70
2022-11-13T21:08:47.970Z,35.73
2022-11-13T21:11:34.383Z,35.93
2022-11-13T21:14:22.226Z,34.67
2022-11-13T21:17:08.573Z,35.67
2022-11-13T21:19:57.584Z,44.27
2022-11-13T21:22:44.183Z,37.20
2022-11-13T21:25:30.928Z,35.27
2022-11-13T21:28:22.427Z,36.00
2022-11-13T21:31:15.523Z,40.47
2022-11-13T21:34:01.828Z,37.57
2022-11-13T21:36:48.414Z,34.70
2022-11-13T21:39:34.861Z,31.50
2022-11-13T21:42:21.394Z,31.73
2022-11-13T21:45:08.838Z,33.00
2022-11-13T21:47:56.426Z,32.17
2022-11-13T21:50:42.912Z,37.47
2022-11-13T21:53:29.399Z,33.87
2022-11-13T21:56:16.933Z,33.60
2022-11-13T21:59:03.515Z,33.43
2022-11-13T22:01:50.233Z,33.13
2022-11-13T22:04:38.167Z,38.47
2022-11-13T22:07:24.647Z,30.03
2022-11-13T22:10:11.210Z,35.60
2022-11-13T22:12:57.741Z,33.20
2022-11-13T22:15:44.163Z,29.37
2022-11-13T22:18:31.315Z,35.87
2022-11-13T22:21:19.336Z,31.30
2022-11-13T22:24:06.219Z,31.73
2022-11-13T22:26:52.610Z,29.30
2022-11-13T22:29:39.263Z,32.73
2022-11-13T22:32:25.367Z,32.63
2022-11-13T22:35:11.858Z,35.10
2022-11-13T22:37:59.796Z,29.77
2022-11-13T22:40:46.262Z,30.73
2022-11-13T22:43:34.182Z,30.30
2022-11-13T22:46:22.067Z,35.77
2022-11-13T22:49:08.439Z,33.50
2022-11-13T22:51:54.656Z,34.10
2022-11-13T22:54:42.453Z,32.93
2022-11-13T22:57:28.915Z,32.30
2022-11-13T23:00:15.862Z,33.30
2022-11-13T23:03:02.018Z,29.33
2022-11-13T23:05:48.554Z,33.67
2022-11-13T23:08:38.637Z,34.93
2022-11-13T23:11:28.213Z,32.23
2022-11-13T23:14:15.684Z,33.77
2022-11-13T23:17:02.296Z,31.90
2022-11-13T23:19:48.667Z,39.10
2022-11-13T23:22:35.113Z,32.57
2022-11-13T23:25:21.626Z,34.70
2022-11-13T23:28:09.435Z,31.60
2022-11-13T23:30:56.330Z,34.87
2022-11-13T23:33:42.997Z,31.77
2022-11-13T23:36:30.546Z,34.00
2022-11-13T23:39:16.800Z,28.13
2022-11-13T23:42:03.116Z,30.80
2022-11-13T23:44:50.862Z,30.60
2022-11-13T23:47:37.425Z,36.60
2022-11-13T23:50:24.239Z,31.40
2022-11-13T23:53:10.994Z,29.90
2022-11-13T23:55:57.442Z,29.23
2022-11-13T23:58:44.119Z,29.13
